createdAt,value
2019-02-03T00:00:24.096Z,99331.22
2019-02-03T00:02:50.931Z,99339.69
2019-02-03T00:05:17.790Z,99345.10
2019-02-03T00:07:44.611Z,99341.58
2019-02-03T00:10:11.451Z,99339.00
2019-02-03T00:12:38.291Z,99338.14
2019-02-03T00:15:05.854Z,99345.44
2019-02-03T00:17:32.703Z,99335.41
2019-02-03T00:19:59.570Z,99333.67
2019-02-03T00:22:26.398Z,99336.72
2019-02-03T00:24:53.246Z,99340.89
2019-02-03T00:27:20.082Z,99342.00
2019-02-03T00:29:47.014Z,99337.97
2019-02-03T00:32:13.859Z,99343.35
2019-02-03T00:34:40.722Z,99341.36
2019-02-03T00:37:15.251Z,99336.44
2019-02-03T00:39:34.467Z,99337.98
2019-02-03T00:42:01.346Z,99346.03
2019-02-03T00:44:28.161Z,99350.66
2019-02-03T00:46:54.991Z,99347.55
2019-02-03T00:49:21.837Z,99356.00
2019-02-03T00:51:48.675Z,99350.30
2019-02-03T00:54:15.525Z,99348.59
2019-02-03T00:56:42.359Z,99359.11
2019-02-03T00:59:09.219Z,99360.52
2019-02-03T01:01:36.065Z,99358.04
2019-02-03T01:04:02.916Z,99358.75
2019-02-03T01:06:29.751Z,99363.45
2019-02-03T01:08:56.599Z,99362.14
2019-02-03T01:11:23.466Z,99374.41
2019-02-03T01:13:50.290Z,99378.28
2019-02-03T01:16:17.142Z,99377.38
2019-02-03T01:18:43.991Z,99386.17
2019-02-03T01:21:10.827Z,99394.45
2019-02-03T01:23:37.662Z,99397.97
2019-02-03T01:26:04.511Z,99396.81
2019-02-03T01:28:31.342Z,99402.94
2019-02-03T01:30:58.203Z,99406.80
2019-02-03T01:33:25.030Z,99408.56
2019-02-03T01:35:51.882Z,99406.67
2019-02-03T01:38:18.720Z,99413.52
2019-02-03T01:40:45.562Z,99413.39
2019-02-03T01:43:12.383Z,99414.20
2019-02-03T01:45:39.234Z,99406.40
2019-02-03T01:48:06.074Z,99401.29
2019-02-03T01:50:32.930Z,99405.05
2019-02-03T01:52:59.758Z,99408.81
2019-02-03T01:55:26.615Z,99413.48
2019-02-03T01:57:53.454Z,99404.13
2019-02-03T02:00:22.258Z,99420.52
2019-02-03T02:02:49.081Z,99421.66
2019-02-03T02:05:15.918Z,99421.53
2019-02-03T02:07:51.138Z,99418.74
2019-02-03T02:10:12.191Z,99404.97
2019-02-03T02:12:39.010Z,99405.57
2019-02-03T02:15:08.091Z,99394.54
2019-02-03T02:17:34.950Z,99388.92
2019-02-03T02:20:01.811Z,99375.63
2019-02-03T02:22:28.642Z,99383.91
2019-02-03T02:24:55.485Z,99397.93
2019-02-03T02:27:22.314Z,99380.43
2019-02-03T02:29:49.199Z,99402.59
2019-02-03T02:32:16.030Z,99417.55
2019-02-03T02:34:42.877Z,99437.53
2019-02-03T02:37:09.721Z,99452.97
2019-02-03T02:39:36.547Z,99477.03
2019-02-03T02:42:03.398Z,99480.69
2019-02-03T02:44:30.216Z,99496.81
2019-02-03T02:46:57.063Z,99510.25
2019-02-03T02:49:24.070Z,99501.59
2019-02-03T02:51:50.926Z,99526.27
2019-02-03T02:54:17.761Z,99543.87
2019-02-03T02:56:44.595Z,99552.90
2019-02-03T02:59:11.425Z,99557.80
2019-02-03T03:01:38.278Z,99582.11
2019-02-03T03:04:05.094Z,99585.37
2019-02-03T03:06:31.954Z,99584.91
2019-02-03T03:08:58.781Z,99585.61
2019-02-03T03:11:25.631Z,99583.74
2019-02-03T03:13:52.466Z,99598.31
2019-02-03T03:16:19.317Z,99602.38
2019-02-03T03:18:46.162Z,99598.17
2019-02-03T03:21:13.187Z,99603.63
2019-02-03T03:23:40.022Z,99601.52
2019-02-03T03:26:06.870Z,99613.61
2019-02-03T03:28:33.695Z,99619.09
2019-02-03T03:31:00.564Z,99606.09
2019-02-03T03:33:27.390Z,99616.42
2019-02-03T03:35:54.243Z,99631.69
2019-02-03T03:38:31.634Z,99638.36
2019-02-03T03:40:47.922Z,99636.13
2019-02-03T03:43:14.746Z,99625.15
2019-02-03T03:45:41.593Z,99625.84
2019-02-03T03:48:08.426Z,99624.91
2019-02-03T03:50:35.285Z,99633.94
2019-02-03T03:53:02.110Z,99639.18
2019-02-03T03:55:28.951Z,99635.58
2019-02-03T03:57:55.778Z,99646.52
2019-02-03T04:00:24.001Z,99646.14
2019-02-03T04:02:50.898Z,99651.36
2019-02-03T04:05:17.721Z,99651.49
2019-02-03T04:07:44.565Z,99656.52
2019-02-03T04:10:12.070Z,99670.05
2019-02-03T04:12:38.911Z,99667.59
2019-02-03T04:15:07.123Z,99674.94
2019-02-03T04:17:33.997Z,99675.95
2019-02-03T04:20:00.795Z,99669.83
2019-02-03T04:22:27.646Z,99666.09
2019-02-03T04:24:54.470Z,99672.10
2019-02-03T04:27:21.306Z,99671.75
2019-02-03T04:29:48.126Z,99659.41
2019-02-03T04:32:15.070Z,99657.55
2019-02-03T04:34:41.897Z,99655.45
2019-02-03T04:37:08.759Z,99674.94
2019-02-03T04:39:35.627Z,99664.19
2019-02-03T04:42:02.485Z,99673.41
2019-02-03T04:44:29.317Z,99675.16
2019-02-03T04:46:56.158Z,99679.88
2019-02-03T04:49:22.990Z,99691.83
2019-02-03T04:51:49.829Z,99686.30
2019-02-03T04:54:16.660Z,99678.32
2019-02-03T04:56:43.506Z,99699.48
2019-02-03T04:59:10.335Z,99693.83
2019-02-03T05:01:37.182Z,99711.57
2019-02-03T05:04:04.069Z,99699.96
2019-02-03T05:06:30.922Z,99712.11
2019-02-03T05:09:10.398Z,99700.32
2019-02-03T05:11:24.634Z,99709.90
2019-02-03T05:13:51.471Z,99724.69
2019-02-03T05:16:18.403Z,99723.33
2019-02-03T05:18:45.237Z,99726.89
2019-02-03T05:21:12.078Z,99738.51
2019-02-03T05:23:38.926Z,99742.58
2019-02-03T05:26:05.781Z,99759.36
2019-02-03T05:28:32.636Z,99751.45
2019-02-03T05:30:59.480Z,99746.42
2019-02-03T05:33:26.322Z,99757.61
2019-02-03T05:35:53.157Z,99773.97
2019-02-03T05:38:20.019Z,99779.99
2019-02-03T05:40:46.859Z,99774.44
2019-02-03T05:43:13.737Z,99785.98
2019-02-03T05:45:40.566Z,99788.72
2019-02-03T05:48:07.410Z,99802.83
2019-02-03T05:50:34.239Z,99798.34
2019-02-03T05:53:01.100Z,99804.69
2019-02-03T05:55:27.932Z,99786.16
2019-02-03T05:57:54.773Z,99806.69
2019-02-03T06:00:27.793Z,99801.44
2019-02-03T06:02:54.639Z,99829.31
2019-02-03T06:05:21.466Z,99824.79
2019-02-03T06:07:48.312Z,99820.33
2019-02-03T06:10:15.869Z,99833.16
2019-02-03T06:12:42.714Z,99837.05
2019-02-03T06:15:09.712Z,99835.84
2019-02-03T06:17:36.866Z,99862.71
2019-02-03T06:20:04.086Z,99869.55
2019-02-03T06:22:30.946Z,99851.02
2019-02-03T06:24:57.794Z,99875.91
2019-02-03T06:27:24.670Z,99883.61
2019-02-03T06:29:51.539Z,99898.75
2019-02-03T06:32:18.391Z,99900.28
2019-02-03T06:34:45.217Z,99898.72
2019-02-03T06:37:12.040Z,99899.83
2019-02-03T06:39:48.214Z,99925.28
2019-02-03T06:42:05.743Z,99923.64
2019-02-03T06:44:32.586Z,99926.52
2019-02-03T06:47:22.577Z,99936.76
2019-02-03T06:49:49.426Z,99925.38
2019-02-03T06:52:16.252Z,99937.86
2019-02-03T06:54:43.102Z,99954.72
2019-02-03T06:57:09.933Z,99950.80
2019-02-03T06:59:36.779Z,99971.13
2019-02-03T07:02:03.622Z,99987.91
2019-02-03T07:04:30.462Z,99988.24
2019-02-03T07:06:57.289Z,99994.58
2019-02-03T07:09:24.142Z,100001.75
2019-02-03T07:11:50.979Z,100012.94
2019-02-03T07:14:17.813Z,100012.94
2019-02-03T07:16:44.646Z,100024.55
2019-02-03T07:19:11.489Z,100037.22
2019-02-03T07:21:38.312Z,100036.34
2019-02-03T07:24:05.167Z,100042.10
2019-02-03T07:26:32.025Z,100052.37
2019-02-03T07:28:58.874Z,100058.02
2019-02-03T07:31:25.706Z,100068.84
2019-02-03T07:33:52.563Z,100062.16
2019-02-03T07:36:19.394Z,100070.76
2019-02-03T07:38:46.235Z,100077.52
2019-02-03T07:41:13.071Z,100079.73
2019-02-03T07:43:39.918Z,100085.06
2019-02-03T07:46:06.742Z,100091.69
2019-02-03T07:48:33.570Z,100091.64
2019-02-03T07:51:00.422Z,100104.93
2019-02-03T07:53:27.256Z,100101.91
2019-02-03T07:55:54.182Z,100103.23
2019-02-03T07:58:20.996Z,100117.46
2019-02-03T08:00:47.845Z,100111.41
2019-02-03T08:03:14.670Z,100127.11
2019-02-03T08:05:41.532Z,100135.80
2019-02-03T08:08:08.359Z,100145.05
2019-02-03T08:10:36.351Z,100150.28
2019-02-03T08:13:03.221Z,100148.58
2019-02-03T08:15:30.090Z,100154.09
2019-02-03T08:17:56.985Z,100166.77
2019-02-03T08:20:24.010Z,100167.69
2019-02-03T08:22:50.836Z,100174.11
2019-02-03T08:25:17.684Z,100180.16
2019-02-03T08:27:44.534Z,100182.63
2019-02-03T08:30:14.244Z,100188.59
2019-02-03T08:32:41.074Z,100190.75
2019-02-03T08:35:07.926Z,100196.98
2019-02-03T08:37:34.798Z,100199.18
2019-02-03T08:40:01.673Z,100203.23
2019-02-03T08:42:28.499Z,100204.02
2019-02-03T08:44:55.350Z,100208.43
2019-02-03T08:47:22.197Z,100209.52
2019-02-03T08:49:49.122Z,100207.80
2019-02-03T08:52:16.011Z,100207.03
2019-02-03T08:54:56.795Z,100219.87
2019-02-03T08:57:09.803Z,100222.91
2019-02-03T08:59:36.638Z,100222.87
2019-02-03T09:02:03.584Z,100222.34
2019-02-03T09:04:30.402Z,100224.36
2019-02-03T09:06:57.848Z,100234.69
2019-02-03T09:09:24.086Z,100232.84
2019-02-03T09:11:50.934Z,100243.48
2019-02-03T09:14:17.905Z,100237.06
2019-02-03T09:16:44.766Z,100244.13
2019-02-03T09:19:11.670Z,100245.84
2019-02-03T09:21:38.596Z,100240.03
2019-02-03T09:24:05.420Z,100246.55
2019-02-03T09:26:32.382Z,100257.08
2019-02-03T09:28:59.241Z,100267.47
2019-02-03T09:31:26.086Z,100273.55
2019-02-03T09:33:52.918Z,100282.89
2019-02-03T09:36:19.770Z,100285.98
2019-02-03T09:38:46.594Z,100291.13
2019-02-03T09:41:13.522Z,100281.82
2019-02-03T09:43:40.362Z,100300.94
2019-02-03T09:46:07.217Z,100306.80
2019-02-03T09:48:34.148Z,100300.07
2019-02-03T09:51:01.025Z,100312.72
2019-02-03T09:53:27.862Z,100315.95
2019-02-03T09:55:54.907Z,100314.86
2019-02-03T09:58:21.743Z,100318.37
2019-02-03T10:00:48.621Z,100302.84
2019-02-03T10:03:15.502Z,100328.64
2019-02-03T10:05:42.347Z,100332.91
2019-02-03T10:08:09.189Z,100318.11
2019-02-03T10:10:37.287Z,100331.02
2019-02-03T10:13:04.661Z,100320.17
2019-02-03T10:15:31.610Z,100334.78
2019-02-03T10:17:58.450Z,100344.58
2019-02-03T10:20:25.362Z,100337.94
2019-02-03T10:22:52.135Z,100348.70
2019-02-03T10:25:20.198Z,100348.66
2019-02-03T10:27:47.199Z,100349.31
2019-02-03T10:30:14.204Z,100369.47
2019-02-03T10:32:41.128Z,100361.23
2019-02-03T10:35:23.124Z,100369.96
2019-02-03T10:37:39.369Z,100370.80
2019-02-03T10:40:09.240Z,100371.11
2019-02-03T10:42:36.158Z,100356.24
2019-02-03T10:45:03.037Z,100371.17
2019-02-03T10:47:29.885Z,100372.66
2019-02-03T10:49:56.779Z,100377.12
2019-02-03T10:52:23.633Z,100383.00
2019-02-03T10:54:50.675Z,100380.72
2019-02-03T10:57:17.530Z,100387.59
2019-02-03T10:59:44.399Z,100387.08
2019-02-03T11:02:11.251Z,100390.21
2019-02-03T11:04:38.220Z,100386.61
2019-02-03T11:07:04.949Z,100394.08
2019-02-03T11:09:31.790Z,100403.50
2019-02-03T11:11:58.649Z,100398.22
2019-02-03T11:14:25.486Z,100406.81
2019-02-03T11:16:52.375Z,100403.88
2019-02-03T11:19:19.218Z,100400.48
2019-02-03T11:21:46.085Z,100405.25
2019-02-03T11:24:12.915Z,100409.95
2019-02-03T11:26:39.819Z,100396.36
2019-02-03T11:29:06.658Z,100413.25
2019-02-03T11:31:33.514Z,100417.28
2019-02-03T11:34:00.383Z,100421.50
2019-02-03T11:36:27.291Z,100421.48
2019-02-03T11:38:54.151Z,100431.95
2019-02-03T11:41:20.978Z,100434.41
2019-02-03T11:43:47.851Z,100430.75
2019-02-03T11:46:14.766Z,100434.36
2019-02-03T11:48:41.621Z,100452.42
2019-02-03T11:51:08.477Z,100439.34
2019-02-03T11:53:35.327Z,100444.85
2019-02-03T11:56:02.182Z,100464.73
2019-02-03T11:58:29.038Z,100450.16
2019-02-03T12:00:56.774Z,100453.60
2019-02-03T12:03:23.629Z,100459.62
2019-02-03T12:05:50.485Z,100462.72
2019-02-03T12:08:17.391Z,100457.81
2019-02-03T12:10:44.243Z,100457.92
2019-02-03T12:13:11.107Z,100457.70
2019-02-03T12:15:37.998Z,100463.43
2019-02-03T12:18:05.086Z,100466.33
2019-02-03T12:20:31.934Z,100470.64
2019-02-03T12:22:58.796Z,100468.38
2019-02-03T12:25:27.460Z,100480.02
2019-02-03T12:27:54.314Z,100477.75
2019-02-03T12:30:24.422Z,100485.98
2019-02-03T12:32:51.286Z,100485.73
2019-02-03T12:35:19.669Z,100493.09
2019-02-03T12:37:44.997Z,100498.18
2019-02-03T12:40:14.450Z,100495.14
2019-02-03T12:42:41.294Z,100497.77
2019-02-03T12:45:09.166Z,100499.05
2019-02-03T12:47:36.054Z,100507.86
2019-02-03T12:50:03.382Z,100518.37
2019-02-03T12:52:30.574Z,100513.84
2019-02-03T12:54:57.466Z,100518.83
2019-02-03T12:57:24.363Z,100523.16
2019-02-03T12:59:51.238Z,100518.00
2019-02-03T13:02:18.070Z,100524.53
2019-02-03T13:04:44.936Z,100530.41
2019-02-03T13:07:11.795Z,100533.19
2019-02-03T13:09:38.663Z,100527.02
2019-02-03T13:12:05.514Z,100540.77
2019-02-03T13:14:32.379Z,100542.16
2019-02-03T13:16:59.221Z,100544.06
2019-02-03T13:19:26.086Z,100558.22
2019-02-03T13:21:52.922Z,100556.73
2019-02-03T13:24:19.783Z,100559.71
2019-02-03T13:26:46.643Z,100561.22
2019-02-03T13:29:13.504Z,100557.81
2019-02-03T13:31:40.347Z,100566.34
2019-02-03T13:34:07.247Z,100562.70
2019-02-03T13:36:34.098Z,100570.37
2019-02-03T13:39:00.954Z,100570.89
2019-02-03T13:41:27.807Z,100580.27
2019-02-03T13:43:54.667Z,100578.62
2019-02-03T13:46:21.518Z,100594.45
2019-02-03T13:48:48.470Z,100585.28
2019-02-03T13:51:15.340Z,100575.78
2019-02-03T13:53:42.182Z,100598.88
2019-02-03T13:56:09.010Z,100608.45
2019-02-03T13:58:37.517Z,100603.01
2019-02-03T14:01:03.582Z,100607.42
2019-02-03T14:03:30.446Z,100619.08
2019-02-03T14:05:57.298Z,100617.44
2019-02-03T14:08:24.130Z,100626.64
2019-02-03T14:10:50.986Z,100623.97
2019-02-03T14:13:17.822Z,100636.08
2019-02-03T14:15:44.691Z,100634.70
2019-02-03T14:18:11.520Z,100633.80
2019-02-03T14:20:38.421Z,100645.39
2019-02-03T14:23:05.218Z,100646.75
2019-02-03T14:25:32.058Z,100646.05
2019-02-03T14:27:58.891Z,100637.44
2019-02-03T14:30:39.201Z,100657.25
2019-02-03T14:32:55.061Z,100656.05
2019-02-03T14:35:21.955Z,100649.42
2019-02-03T14:37:48.786Z,100658.07
2019-02-03T14:40:15.984Z,100663.38
2019-02-03T14:42:48.049Z,100662.09
2019-02-03T14:45:11.403Z,100675.17
2019-02-03T14:47:38.247Z,100676.83
2019-02-03T14:50:06.639Z,100677.84
2019-02-03T14:52:33.463Z,100677.40
2019-02-03T14:55:00.332Z,100685.11
2019-02-03T14:57:27.170Z,100691.45
2019-02-03T14:59:54.031Z,100695.05
2019-02-03T15:02:20.871Z,100700.19
2019-02-03T15:04:47.730Z,100699.62
2019-02-03T15:07:14.715Z,100698.16
2019-02-03T15:09:41.574Z,100702.11
2019-02-03T15:12:08.408Z,100710.64
2019-02-03T15:14:35.253Z,100708.91
2019-02-03T15:17:02.091Z,100725.94
2019-02-03T15:19:28.926Z,100724.80
2019-02-03T15:21:55.774Z,100725.19
2019-02-03T15:24:22.615Z,100736.22
2019-02-03T15:26:49.479Z,100734.99
2019-02-03T15:29:16.326Z,100728.56
2019-02-03T15:31:43.206Z,100737.41
2019-02-03T15:34:11.686Z,100735.11
2019-02-03T15:36:36.866Z,100742.47
2019-02-03T15:39:06.522Z,100748.31
2019-02-03T15:41:33.386Z,100756.78
2019-02-03T15:44:00.214Z,100760.66
2019-02-03T15:46:27.066Z,100762.50
2019-02-03T15:48:53.892Z,100767.71
2019-02-03T15:51:20.739Z,100763.30
2019-02-03T15:53:47.574Z,100769.36
2019-02-03T15:56:14.522Z,100769.82
2019-02-03T15:58:41.352Z,100775.52
2019-02-03T16:01:08.208Z,100786.05
2019-02-03T16:03:35.045Z,100794.64
2019-02-03T16:06:01.902Z,100797.77
2019-02-03T16:08:28.739Z,100801.62
2019-02-03T16:10:55.606Z,100798.78
2019-02-03T16:13:22.520Z,100804.51
2019-02-03T16:15:49.311Z,100818.92
2019-02-03T16:18:16.175Z,100824.50
2019-02-03T16:20:43.045Z,100835.33
2019-02-03T16:23:09.898Z,100827.23
2019-02-03T16:25:36.747Z,100842.70
2019-02-03T16:28:04.197Z,100853.58
2019-02-03T16:30:32.544Z,100852.05
2019-02-03T16:32:59.379Z,100855.52
2019-02-03T16:35:26.271Z,100864.18
2019-02-03T16:37:53.200Z,100873.75
2019-02-03T16:40:21.893Z,100883.90
2019-02-03T16:42:48.811Z,100893.95
2019-02-03T16:45:15.710Z,100896.14
2019-02-03T16:47:42.616Z,100907.52
2019-02-03T16:50:13.086Z,100905.69
2019-02-03T16:52:39.893Z,100912.22
2019-02-03T16:55:07.859Z,100916.55
2019-02-03T16:57:34.798Z,100922.66
2019-02-03T17:00:01.652Z,100935.10
2019-02-03T17:02:28.485Z,100940.73
2019-02-03T17:04:55.322Z,100945.59
2019-02-03T17:07:22.174Z,100950.11
2019-02-03T17:09:49.154Z,100959.88
2019-02-03T17:12:16.019Z,100961.67
2019-02-03T17:14:42.851Z,100959.31
2019-02-03T17:17:09.750Z,100975.06
2019-02-03T17:19:36.600Z,100979.29
2019-02-03T17:22:03.455Z,100985.63
2019-02-03T17:24:30.339Z,100995.75
2019-02-03T17:26:57.208Z,100991.17
2019-02-03T17:29:24.045Z,100997.06
2019-02-03T17:31:50.970Z,101005.23
2019-02-03T17:34:17.923Z,101013.63
2019-02-03T17:36:44.787Z,101019.44
2019-02-03T17:39:11.637Z,101016.71
2019-02-03T17:41:38.574Z,101029.10
2019-02-03T17:44:14.814Z,101032.75
2019-02-03T17:46:32.680Z,101038.98
2019-02-03T17:48:59.555Z,101049.00
2019-02-03T17:51:26.421Z,101050.06
2019-02-03T17:53:53.344Z,101055.20
2019-02-03T17:56:20.210Z,101046.56
2019-02-03T17:58:47.058Z,101059.19
2019-02-03T18:01:14.730Z,101058.89
2019-02-03T18:03:41.586Z,101068.48
2019-02-03T18:06:08.430Z,101076.11
2019-02-03T18:08:35.299Z,101085.49
2019-02-03T18:11:02.134Z,101086.78
2019-02-03T18:13:28.981Z,101088.27
2019-02-03T18:15:55.877Z,101086.99
2019-02-03T18:18:22.835Z,101100.67
2019-02-03T18:20:49.825Z,101097.65
2019-02-03T18:23:16.776Z,101107.78
2019-02-03T18:25:43.625Z,101108.02
2019-02-03T18:28:10.495Z,101110.66
2019-02-03T18:30:37.538Z,101119.64
2019-02-03T18:33:05.197Z,101128.50
2019-02-03T18:35:32.081Z,101133.28
2019-02-03T18:37:59.023Z,101142.95
2019-02-03T18:40:25.863Z,101139.52
2019-02-03T18:42:52.749Z,101147.02
2019-02-03T18:45:19.767Z,101148.00
2019-02-03T18:47:46.687Z,101151.31
2019-02-03T18:50:15.690Z,101158.14
2019-02-03T18:52:42.551Z,101147.92
2019-02-03T18:55:11.850Z,101154.11
2019-02-03T18:57:38.710Z,101155.03
2019-02-03T19:00:10.260Z,101164.25
2019-02-03T19:02:37.177Z,101175.37
2019-02-03T19:05:05.798Z,101177.43
2019-02-03T19:07:32.729Z,101175.61
2019-02-03T19:09:59.586Z,101182.64
2019-02-03T19:12:26.537Z,101191.75
2019-02-03T19:14:53.369Z,101195.11
2019-02-03T19:17:20.242Z,101199.00
2019-02-03T19:19:47.098Z,101204.06
2019-02-03T19:22:14.036Z,101201.45
2019-02-03T19:24:40.994Z,101210.52
2019-02-03T19:27:07.834Z,101213.84
2019-02-03T19:29:34.729Z,101210.36
2019-02-03T19:32:01.686Z,101215.32
2019-02-03T19:34:28.579Z,101212.63
2019-02-03T19:37:05.187Z,101224.62
2019-02-03T19:39:22.291Z,101232.63
2019-02-03T19:41:49.150Z,101237.23
2019-02-03T19:44:16.010Z,101233.67
2019-02-03T19:46:45.058Z,101241.40
2019-02-03T19:49:11.911Z,101250.91
2019-02-03T19:51:39.258Z,101245.13
2019-02-03T19:54:06.137Z,101249.19
2019-02-03T19:56:32.979Z,101250.45
2019-02-03T19:58:59.950Z,101256.85
2019-02-03T20:01:26.819Z,101264.11
2019-02-03T20:03:58.035Z,101266.45
2019-02-03T20:06:24.949Z,101273.25
2019-02-03T20:08:51.794Z,101276.80
2019-02-03T20:11:18.649Z,101277.11
2019-02-03T20:13:45.524Z,101287.72
2019-02-03T20:16:12.362Z,101294.63
2019-02-03T20:18:39.220Z,101300.19
2019-02-03T20:21:06.486Z,101301.96
2019-02-03T20:23:33.325Z,101304.17
2019-02-03T20:26:00.163Z,101307.56
2019-02-03T20:28:27.102Z,101312.73
2019-02-03T20:30:54.290Z,101309.98
2019-02-03T20:33:21.479Z,101318.41
2019-02-03T20:35:48.314Z,101321.75
2019-02-03T20:38:15.174Z,101325.52
2019-02-03T20:40:42.454Z,101327.81
2019-02-03T20:43:09.306Z,101331.05
2019-02-03T20:45:37.968Z,101332.33
2019-02-03T20:48:03.090Z,101327.72
2019-02-03T20:50:29.927Z,101347.67
2019-02-03T20:52:56.758Z,101346.84
2019-02-03T20:55:23.650Z,101345.25
2019-02-03T20:57:50.507Z,101353.33
2019-02-03T21:00:22.006Z,101357.50
2019-02-03T21:02:48.903Z,101354.02
2019-02-03T21:05:15.750Z,101357.20
2019-02-03T21:07:42.590Z,101354.48
2019-02-03T21:10:11.139Z,101358.85
2019-02-03T21:12:38.014Z,101362.32
2019-02-03T21:15:05.930Z,101359.30
2019-02-03T21:17:32.757Z,101365.03
2019-02-03T21:19:59.599Z,101363.08
2019-02-03T21:22:26.518Z,101360.77
2019-02-03T21:24:53.371Z,101365.75
2019-02-03T21:27:20.202Z,101361.53
2019-02-03T21:29:47.095Z,101360.77
2019-02-03T21:32:13.906Z,101369.58
2019-02-03T21:34:40.786Z,101361.98
2019-02-03T21:37:07.638Z,101365.99
2019-02-03T21:39:34.527Z,101369.44
2019-02-03T21:42:01.370Z,101369.29
2019-02-03T21:44:28.221Z,101366.83
2019-02-03T21:46:55.062Z,101370.04
2019-02-03T21:49:21.926Z,101373.20
2019-02-03T21:51:48.814Z,101376.73
2019-02-03T21:54:15.661Z,101379.19
2019-02-03T21:56:42.490Z,101382.77
2019-02-03T21:59:09.355Z,101385.33
2019-02-03T22:01:36.175Z,101389.81
2019-02-03T22:04:03.014Z,101389.81
2019-02-03T22:06:29.871Z,101390.41
2019-02-03T22:08:56.694Z,101390.50
2019-02-03T22:11:23.551Z,101390.33
2019-02-03T22:13:50.383Z,101410.77
2019-02-03T22:16:17.230Z,101412.34
2019-02-03T22:18:44.060Z,101419.62
2019-02-03T22:21:10.915Z,101417.56
2019-02-03T22:23:37.738Z,101416.38
2019-02-03T22:26:04.594Z,101415.56
2019-02-03T22:28:31.439Z,101424.23
2019-02-03T22:30:58.329Z,101425.32
2019-02-03T22:33:25.154Z,101436.61
2019-02-03T22:35:51.989Z,101435.98
2019-02-03T22:38:18.822Z,101435.01
2019-02-03T22:40:45.726Z,101442.59
2019-02-03T22:43:12.550Z,101442.06
2019-02-03T22:45:39.398Z,101443.55
2019-02-03T22:48:06.529Z,101444.84
2019-02-03T22:50:33.387Z,101450.69
2019-02-03T22:53:00.214Z,101453.30
2019-02-03T22:55:27.079Z,101452.80
2019-02-03T22:57:53.930Z,101451.70
2019-02-03T23:00:44.582Z,101452.54
2019-02-03T23:03:11.417Z,101452.64
2019-02-03T23:05:38.397Z,101452.78
2019-02-03T23:08:05.102Z,101467.30
2019-02-03T23:10:32.089Z,101460.87
2019-02-03T23:12:58.929Z,101463.75
2019-02-03T23:15:25.841Z,101462.62
2019-02-03T23:17:52.706Z,101471.74
2019-02-03T23:20:19.538Z,101471.42
2019-02-03T23:22:46.394Z,101476.81
2019-02-03T23:25:13.222Z,101483.55
2019-02-03T23:27:40.183Z,101486.12
2019-02-03T23:30:10.338Z,101488.75
2019-02-03T23:32:37.183Z,101486.73
2019-02-03T23:35:04.090Z,101488.38
2019-02-03T23:37:30.938Z,101483.99
2019-02-03T23:39:57.839Z,101484.48
2019-02-03T23:42:24.681Z,101482.48
2019-02-03T23:44:51.509Z,101487.43
2019-02-03T23:47:18.361Z,101487.64
2019-02-03T23:49:45.194Z,101495.36
2019-02-03T23:52:12.050Z,101499.31
2019-02-03T23:54:38.881Z,101504.17
2019-02-03T23:57:05.745Z,101505.28
2019-02-03T23:59:32.582Z,101505.52
